Time;durP1;ratioP1;P1;durP2;ratioP2;P2;SDS_P1;SDS_P2;PMS_P1;PMS_P2;Temp;Humidity;BMP_temperature;BMP_pressure;BME280_temperature;BME280_humidity;BME280_pressure;Samples;Min_cycle;Max_cycle;Signal;HPM_P1;HPM_P2
2021/12/08 00:02:11;;;;;;;10.57;4.07;;;;;;;;;;5134677;27;20054;-78
2021/12/08 00:04:37;;;;;;;10.63;4.90;;;;;;;;;;5134631;27;20388;-79
2021/12/08 00:07:04;;;;;;;11.57;4.78;;;;;;;;;;5134831;27;20425;-80
2021/12/08 00:15:04;;;;;;;9.85;4.47;;;;;;;;;;5116302;27;20092;-78
2021/12/08 00:17:30;;;;;;;11.82;4.68;;;;;;;;;;5116364;27;20039;-79
2021/12/08 00:20:00;;;;;;;12.07;4.40;;;;;;;;;;5116144;27;20049;-79
2021/12/08 00:22:27;;;;;;;12.43;5.18;;;;;;;;;;5134331;27;20035;-80
2021/12/08 00:24:53;;;;;;;13.27;4.57;;;;;;;;;;5116437;27;20399;-80
2021/12/08 00:27:19;;;;;;;14.90;4.90;;;;;;;;;;5135261;27;20043;-80
2021/12/08 00:29:46;;;;;;;13.00;5.05;;;;;;;;;;5135577;27;20131;-81
2021/12/08 00:32:12;;;;;;;12.43;4.47;;;;;;;;;;5135194;27;20039;-79
2021/12/08 00:34:38;;;;;;;15.27;4.43;;;;;;;;;;5100191;27;20130;-80
2021/12/08 00:37:05;;;;;;;11.45;4.22;;;;;;;;;;5135336;27;20363;-80
2021/12/08 00:39:31;;;;;;;10.10;3.97;;;;;;;;;;5134943;27;20092;-79
2021/12/08 00:41:57;;;;;;;12.27;4.43;;;;;;;;;;5116722;27;20555;-79
2021/12/08 00:44:24;;;;;;;11.70;4.38;;;;;;;;;;5135093;27;20078;-78
2021/12/08 00:46:50;;;;;;;18.00;4.80;;;;;;;;;;5134500;27;20047;-80
2021/12/08 00:49:17;;;;;;;11.32;4.40;;;;;;;;;;5116225;27;20129;-80
2021/12/08 00:51:44;;;;;;;12.00;4.40;;;;;;;;;;5116580;27;20444;-80
2021/12/08 00:54:10;;;;;;;11.43;4.20;;;;;;;;;;5116856;27;20069;-79
2021/12/08 00:56:39;;;;;;;10.32;3.60;;;;;;;;;;5116639;27;20510;-78
2021/12/08 00:59:05;;;;;;;10.90;3.97;;;;;;;;;;5116706;27;20179;-80
2021/12/08 01:01:32;;;;;;;10.85;3.42;;;;;;;;;;5134888;27;20140;-77
2021/12/08 01:03:58;;;;;;;13.68;3.75;;;;;;;;;;5134318;27;20480;-79
2021/12/08 01:06:25;;;;;;;11.77;3.42;;;;;;;;;;5115821;27;20487;-79
2021/12/08 01:08:51;;;;;;;10.30;3.13;;;;;;;;;;5116040;28;20547;-78
2021/12/08 01:11:18;;;;;;;11.02;3.33;;;;;;;;;;5116074;28;20160;-81
2021/12/08 01:13:45;;;;;;;14.10;3.40;;;;;;;;;;5133926;28;20039;-79
2021/12/08 01:16:11;;;;;;;8.13;3.13;;;;;;;;;;5115889;28;20559;-78
2021/12/08 01:18:37;;;;;;;12.10;3.30;;;;;;;;;;5115737;28;20119;-81
2021/12/08 01:21:06;;;;;;;12.90;3.45;;;;;;;;;;5134526;28;20043;-79
2021/12/08 01:23:33;;;;;;;13.30;3.63;;;;;;;;;;5134729;28;20041;-81
2021/12/08 01:25:59;;;;;;;13.85;3.50;;;;;;;;;;5134094;28;20055;-78
2021/12/08 01:28:25;;;;;;;8.77;3.42;;;;;;;;;;5115768;28;20383;-79
2021/12/08 01:30:53;;;;;;;9.85;3.40;;;;;;;;;;5116224;28;20035;-80
2021/12/08 01:33:20;;;;;;;10.50;3.55;;;;;;;;;;5134292;28;20051;-78
2021/12/08 01:35:47;;;;;;;12.18;4.13;;;;;;;;;;5115634;28;20047;-81
2021/12/08 01:38:13;;;;;;;9.00;3.35;;;;;;;;;;5133879;28;20046;-80
2021/12/08 01:40:40;;;;;;;11.00;3.50;;;;;;;;;;5134026;28;20074;-79
2021/12/08 01:43:12;;;;;;;9.40;3.38;;;;;;;;;;5115456;28;20130;-79
2021/12/08 01:45:59;;;;;;;8.65;3.58;;;;;;;;;;5133590;28;20054;-80
2021/12/08 01:48:28;;;;;;;9.38;3.38;;;;;;;;;;5134126;28;20050;-80
2021/12/08 01:50:56;;;;;;;10.00;3.42;;;;;;;;;;5115753;28;20043;-78
2021/12/08 01:53:26;;;;;;;9.27;3.50;;;;;;;;;;5116084;28;20384;-78
2021/12/08 01:55:52;;;;;;;9.63;3.03;;;;;;;;;;5134439;28;20495;-81
2021/12/08 01:58:19;;;;;;;8.82;3.58;;;;;;;;;;5136428;27;20501;-78
2021/12/08 02:01:00;;;;;;;10.30;3.25;;;;;;;;;;5099388;28;20051;-80
2021/12/08 02:03:26;;;;;;;8.07;3.30;;;;;;;;;;5117645;28;20048;-76
2021/12/08 02:05:52;;;;;;;14.00;3.42;;;;;;;;;;5117342;28;20046;-80
2021/12/08 02:08:19;;;;;;;13.57;3.50;;;;;;;;;;5118135;28;20039;-80
2021/12/08 02:10:45;;;;;;;10.20;3.67;;;;;;;;;;5116471;28;20065;-78
2021/12/08 02:13:11;;;;;;;8.82;3.35;;;;;;;;;;5117362;27;20491;-79
2021/12/08 02:15:38;;;;;;;9.98;3.50;;;;;;;;;;5116252;28;20046;-76
2021/12/08 02:18:05;;;;;;;10.95;3.58;;;;;;;;;;5117799;28;20427;-79
2021/12/08 02:20:32;;;;;;;9.32;3.55;;;;;;;;;;5117504;28;20046;-79
2021/12/08 02:22:58;;;;;;;9.68;3.30;;;;;;;;;;5117132;28;20126;-78
2021/12/08 02:25:25;;;;;;;10.95;3.80;;;;;;;;;;5117032;28;20044;-79
2021/12/08 02:27:52;;;;;;;9.32;3.45;;;;;;;;;;5117355;28;20051;-79
2021/12/08 02:47:13;;;;;;;9.23;3.42;;;;;;;;;;5115240;28;20044;-79
2021/12/08 02:49:40;;;;;;;9.07;3.50;;;;;;;;;;5115005;28;20131;-78
2021/12/08 02:52:07;;;;;;;10.70;4.60;;;;;;;;;;5116080;28;20105;-77
2021/12/08 02:54:35;;;;;;;8.07;3.80;;;;;;;;;;5115162;28;20031;-80
2021/12/08 02:57:01;;;;;;;9.13;3.10;;;;;;;;;;5114661;28;20048;-79
2021/12/08 02:59:28;;;;;;;11.02;4.07;;;;;;;;;;5097443;28;20093;-77
2021/12/08 03:01:54;;;;;;;10.75;3.97;;;;;;;;;;5136228;27;20124;-78
2021/12/08 03:04:20;;;;;;;10.13;3.50;;;;;;;;;;5117784;27;20127;-78
2021/12/08 03:06:46;;;;;;;9.95;3.65;;;;;;;;;;5117834;27;20125;-79
2021/12/08 03:09:12;;;;;;;10.15;3.90;;;;;;;;;;5117127;27;20083;-78
2021/12/08 03:11:38;;;;;;;10.60;3.85;;;;;;;;;;5136234;27;20118;-79
2021/12/08 03:14:07;;;;;;;11.45;4.30;;;;;;;;;;5117861;27;20047;-78
2021/12/08 03:16:33;;;;;;;10.15;3.90;;;;;;;;;;5101150;27;20075;-79
2021/12/08 03:19:00;;;;;;;8.75;3.67;;;;;;;;;;5135602;27;20039;-78
2021/12/08 03:21:30;;;;;;;10.95;4.15;;;;;;;;;;5135654;27;20043;-77
2021/12/08 03:24:13;;;;;;;8.55;3.70;;;;;;;;;;5136103;27;20039;-78
2021/12/08 03:29:24;;;;;;;9.63;3.70;;;;;;;;;;5097095;28;20043;-77
2021/12/08 03:31:53;;;;;;;9.73;4.10;;;;;;;;;;5114900;28;20047;-78
2021/12/08 03:34:20;;;;;;;10.25;4.43;;;;;;;;;;5096730;28;20050;-78
2021/12/08 03:36:47;;;;;;;9.80;4.22;;;;;;;;;;5122107;27;20531;-77
2021/12/08 03:39:13;;;;;;;11.35;4.50;;;;;;;;;;5105534;28;20044;-78
2021/12/08 03:41:39;;;;;;;7.78;4.20;;;;;;;;;;5102578;28;20473;-80
2021/12/08 03:44:06;;;;;;;8.35;4.32;;;;;;;;;;5127774;27;20035;-80
2021/12/08 03:46:39;;;;;;;7.93;4.70;;;;;;;;;;5112185;28;20040;-77
2021/12/08 03:49:09;;;;;;;12.02;5.03;;;;;;;;;;5124434;27;20092;-76
2021/12/08 03:51:35;;;;;;;7.93;4.75;;;;;;;;;;5125095;27;20043;-81
2021/12/08 03:54:01;;;;;;;10.23;5.25;;;;;;;;;;5114757;27;20039;-79
2021/12/08 03:56:28;;;;;;;11.40;5.75;;;;;;;;;;5100385;28;20039;-79
2021/12/08 03:58:54;;;;;;;14.13;5.35;;;;;;;;;;5114111;28;20184;-77
2021/12/08 04:01:20;;;;;;;10.20;5.50;;;;;;;;;;5105135;28;20493;-78
2021/12/08 04:03:50;;;;;;;9.35;5.95;;;;;;;;;;5108414;28;20051;-77
2021/12/08 04:06:32;;;;;;;11.82;5.72;;;;;;;;;;5112242;28;20096;-78
2021/12/08 04:09:02;;;;;;;10.90;6.13;;;;;;;;;;5100068;28;20047;-79
2021/12/08 04:11:28;;;;;;;9.48;5.40;;;;;;;;;;5112955;28;20039;-78
2021/12/08 04:14:00;;;;;;;11.85;5.93;;;;;;;;;;5113475;28;20118;-78
2021/12/08 04:16:34;;;;;;;11.88;6.43;;;;;;;;;;5110301;28;20073;-78
2021/12/08 04:19:01;;;;;;;10.43;6.60;;;;;;;;;;5077476;28;20036;-77
2021/12/08 04:21:28;;;;;;;10.77;6.47;;;;;;;;;;5099340;28;20043;-79
2021/12/08 04:23:55;;;;;;;12.27;6.50;;;;;;;;;;5099270;28;20039;-80
2021/12/08 04:26:24;;;;;;;11.82;7.10;;;;;;;;;;5101577;28;20050;-79
2021/12/08 04:28:50;;;;;;;13.07;7.07;;;;;;;;;;5093451;28;20040;-78
2021/12/08 04:31:19;;;;;;;12.68;6.78;;;;;;;;;;5101748;28;20476;-78
2021/12/08 04:33:46;;;;;;;11.27;6.78;;;;;;;;;;5098313;28;20439;-78
2021/12/08 04:36:15;;;;;;;11.52;6.75;;;;;;;;;;5091994;28;20040;-79
2021/12/08 04:38:45;;;;;;;11.45;6.85;;;;;;;;;;5108584;28;20040;-78
2021/12/08 04:41:14;;;;;;;10.40;7.55;;;;;;;;;;5106747;28;20422;-79
2021/12/08 04:43:50;;;;;;;13.80;8.07;;;;;;;;;;5098565;28;20066;-77
2021/12/08 04:46:55;;;;;;;12.90;7.82;;;;;;;;;;5097599;28;20044;-76
2021/12/08 04:52:24;;;;;;;13.30;8.43;;;;;;;;;;5097131;28;20051;-78
2021/12/08 05:08:16;;;;;;;;;;;;;;;;;;5098844;27;20099;-77
2021/12/08 05:10:42;;;;;;;13.30;8.55;;;;;;;;;;5112798;28;19967;-79
2021/12/08 05:13:10;;;;;;;13.65;8.85;;;;;;;;;;5114157;28;20104;-78
2021/12/08 05:15:59;;;;;;;13.68;8.75;;;;;;;;;;5132439;28;20096;-78
2021/12/08 05:18:28;;;;;;;12.98;8.70;;;;;;;;;;5115644;28;20525;-78
2021/12/08 05:21:01;;;;;;;13.65;8.82;;;;;;;;;;5122675;28;20054;-77
2021/12/08 05:23:48;;;;;;;12.18;8.13;;;;;;;;;;5094030;28;20385;-78
2021/12/08 05:26:34;;;;;;;11.40;8.05;;;;;;;;;;5110938;28;20043;-78
2021/12/08 05:29:04;;;;;;;12.95;7.93;;;;;;;;;;5107133;28;20047;-79
2021/12/08 05:31:31;;;;;;;11.85;8.38;;;;;;;;;;5079464;28;20477;-78
2021/12/08 05:33:58;;;;;;;15.73;8.73;;;;;;;;;;5116685;28;20097;-79
2021/12/08 05:36:24;;;;;;;11.00;7.60;;;;;;;;;;5133917;27;20042;-78
2021/12/08 05:38:51;;;;;;;12.80;8.65;;;;;;;;;;5112463;28;20049;-78
2021/12/08 05:41:23;;;;;;;13.93;8.35;;;;;;;;;;5122792;27;20122;-79
2021/12/08 05:43:50;;;;;;;16.55;9.15;;;;;;;;;;5099837;27;20065;-79
2021/12/08 05:46:17;;;;;;;12.45;8.82;;;;;;;;;;5108668;28;20484;-78
2021/12/08 05:48:46;;;;;;;13.80;8.70;;;;;;;;;;5116869;27;20039;-78
2021/12/08 05:51:15;;;;;;;14.55;9.05;;;;;;;;;;5116363;27;20381;-80
2021/12/08 05:53:43;;;;;;;14.77;8.48;;;;;;;;;;5108702;27;20391;-78
2021/12/08 05:56:10;;;;;;;14.25;9.10;;;;;;;;;;5116374;28;20039;-79
2021/12/08 05:58:36;;;;;;;16.02;9.07;;;;;;;;;;5097336;27;20148;-79
2021/12/08 06:01:08;;;;;;;13.77;9.35;;;;;;;;;;5122047;27;20047;-79
2021/12/08 06:03:35;;;;;;;17.05;8.90;;;;;;;;;;5115550;27;20107;-78
2021/12/08 06:06:01;;;;;;;11.93;8.45;;;;;;;;;;5135039;27;20050;-79
2021/12/08 06:08:28;;;;;;;14.93;8.88;;;;;;;;;;5117911;27;20043;-78
2021/12/08 06:10:56;;;;;;;18.13;8.63;;;;;;;;;;5123554;27;20122;-77
2021/12/08 06:13:22;;;;;;;14.52;7.75;;;;;;;;;;5127322;27;20047;-78
2021/12/08 06:15:48;;;;;;;14.05;8.45;;;;;;;;;;5113883;27;20049;-77
2021/12/08 06:18:15;;;;;;;13.95;8.32;;;;;;;;;;5097942;28;20044;-78
2021/12/08 06:20:42;;;;;;;13.63;8.45;;;;;;;;;;5080636;27;20513;-78
2021/12/08 06:23:09;;;;;;;13.32;7.88;;;;;;;;;;5117002;27;20043;-79
2021/12/08 06:25:36;;;;;;;16.13;8.20;;;;;;;;;;5097532;27;20093;-77
2021/12/08 06:28:02;;;;;;;15.05;8.48;;;;;;;;;;5097759;28;20043;-79
2021/12/08 06:30:30;;;;;;;13.90;8.30;;;;;;;;;;5115163;28;20043;-80
2021/12/08 06:32:56;;;;;;;12.63;8.18;;;;;;;;;;5097803;28;20389;-80
2021/12/08 06:35:26;;;;;;;14.35;8.48;;;;;;;;;;5130607;27;20043;-79
2021/12/08 06:37:52;;;;;;;13.75;8.75;;;;;;;;;;5115180;28;20400;-79
2021/12/08 06:40:21;;;;;;;15.98;9.40;;;;;;;;;;5129114;27;20042;-79
2021/12/08 06:42:49;;;;;;;16.02;8.43;;;;;;;;;;5121404;27;20096;-80
2021/12/08 06:45:18;;;;;;;16.70;9.20;;;;;;;;;;5113991;28;20043;-80
2021/12/08 06:47:44;;;;;;;17.40;9.23;;;;;;;;;;5118410;27;20046;-79
2021/12/08 06:50:17;;;;;;;15.02;9.40;;;;;;;;;;5128381;27;20502;-78
2021/12/08 06:52:43;;;;;;;13.65;8.63;;;;;;;;;;5136265;27;20043;-78
2021/12/08 06:55:15;;;;;;;14.23;8.82;;;;;;;;;;5123272;27;20550;-78
2021/12/08 06:57:47;;;;;;;18.05;9.07;;;;;;;;;;5115583;28;20047;-78
2021/12/08 07:00:23;;;;;;;15.35;9.00;;;;;;;;;;5096671;28;20190;-79
2021/12/08 07:03:02;;;;;;;16.63;9.50;;;;;;;;;;5097281;28;20059;-80
2021/12/08 07:05:35;;;;;;;16.30;8.88;;;;;;;;;;5115549;28;20047;-78
2021/12/08 07:08:08;;;;;;;16.25;8.98;;;;;;;;;;5097304;28;20122;-78
2021/12/08 07:10:39;;;;;;;16.10;8.65;;;;;;;;;;5096803;28;20043;-78
2021/12/08 07:13:21;;;;;;;12.75;8.65;;;;;;;;;;5115912;28;20047;-81
2021/12/08 07:15:51;;;;;;;16.20;7.93;;;;;;;;;;5115607;28;20092;-77
2021/12/08 07:18:20;;;;;;;14.13;7.43;;;;;;;;;;5115105;28;20039;-80
2021/12/08 07:20:49;;;;;;;14.50;7.85;;;;;;;;;;5114805;28;20040;-78
2021/12/08 07:23:15;;;;;;;13.60;7.18;;;;;;;;;;5096875;28;20079;-78
2021/12/08 07:25:42;;;;;;;16.73;7.43;;;;;;;;;;5115873;28;20083;-80
2021/12/08 07:28:09;;;;;;;15.85;7.38;;;;;;;;;;5097159;28;20050;-80
2021/12/08 07:30:41;;;;;;;14.43;7.20;;;;;;;;;;5096644;28;20096;-80
2021/12/08 07:33:07;;;;;;;16.02;6.53;;;;;;;;;;5114876;28;20507;-80
2021/12/08 07:35:36;;;;;;;14.85;7.45;;;;;;;;;;5104203;28;20540;-79
2021/12/08 07:38:12;;;;;;;15.85;6.93;;;;;;;;;;5113784;28;20036;-80
2021/12/08 07:40:54;;;;;;;15.52;6.93;;;;;;;;;;5133318;27;20070;-79
2021/12/08 07:43:22;;;;;;;12.07;6.90;;;;;;;;;;5097450;27;20377;-79
2021/12/08 07:45:51;;;;;;;16.88;6.55;;;;;;;;;;5115006;27;20559;-80
2021/12/08 07:48:25;;;;;;;12.55;6.28;;;;;;;;;;5099724;27;20124;-79
2021/12/08 07:50:59;;;;;;;12.45;6.47;;;;;;;;;;5116520;27;20081;-79
2021/12/08 07:53:26;;;;;;;12.50;6.18;;;;;;;;;;5116646;27;20078;-79
2021/12/08 07:55:56;;;;;;;13.25;6.15;;;;;;;;;;5099308;27;20138;-78
2021/12/08 07:58:22;;;;;;;13.07;5.80;;;;;;;;;;5134769;27;20384;-79
2021/12/08 08:00:53;;;;;;;13.45;4.80;;;;;;;;;;5134760;27;20460;-78
2021/12/08 08:03:20;;;;;;;12.90;4.80;;;;;;;;;;5116558;27;20053;-78
2021/12/08 08:05:47;;;;;;;12.00;4.25;;;;;;;;;;5116516;27;20116;-79
2021/12/08 08:08:16;;;;;;;12.35;4.10;;;;;;;;;;5134665;27;20122;-79
2021/12/08 08:10:50;;;;;;;14.57;3.72;;;;;;;;;;5134429;27;20043;-78
2021/12/08 08:13:17;;;;;;;12.32;3.53;;;;;;;;;;5115994;27;20043;-78
2021/12/08 08:15:45;;;;;;;10.98;3.83;;;;;;;;;;5116445;27;20047;-80
2021/12/08 08:18:18;;;;;;;13.13;4.10;;;;;;;;;;5116300;27;20055;-79
2021/12/08 08:20:49;;;;;;;14.40;3.70;;;;;;;;;;5134820;27;20047;-78
2021/12/08 08:23:20;;;;;;;12.27;3.85;;;;;;;;;;5115770;27;20035;-78
2021/12/08 08:25:46;;;;;;;;;;;;;;;;;;5116151;27;20381;-74
2021/12/08 08:28:12;;;;;;;12.80;3.47;;;;;;;;;;5115620;27;20424;-72
2021/12/08 08:30:42;;;;;;;13.00;3.72;;;;;;;;;;5115853;27;20396;-78
2021/12/08 08:33:08;;;;;;;9.90;3.50;;;;;;;;;;5134673;27;20031;-79
2021/12/08 08:35:43;;;;;;;10.25;3.30;;;;;;;;;;5116180;27;20046;-78
2021/12/08 08:38:11;;;;;;;9.45;3.00;;;;;;;;;;5134067;27;20213;-78
2021/12/08 08:40:46;;;;;;;11.30;2.75;;;;;;;;;;5115986;27;20480;-79
2021/12/08 08:43:12;;;;;;;11.93;2.78;;;;;;;;;;5115882;27;20050;-79
2021/12/08 08:45:43;;;;;;;11.60;2.85;;;;;;;;;;5133910;27;20079;-79
2021/12/08 08:48:11;;;;;;;10.60;3.00;;;;;;;;;;5133746;27;20524;-78
2021/12/08 08:50:40;;;;;;;11.38;2.78;;;;;;;;;;5115309;27;20031;-79
2021/12/08 08:53:07;;;;;;;16.63;2.85;;;;;;;;;;5134039;27;20053;-79
2021/12/08 08:55:39;;;;;;;10.27;2.70;;;;;;;;;;5133775;27;20494;-78
2021/12/08 08:58:07;;;;;;;8.43;2.10;;;;;;;;;;5133501;27;20042;-78
2021/12/08 09:00:44;;;;;;;10.93;2.63;;;;;;;;;;5133283;27;20051;-78
2021/12/08 09:03:16;;;;;;;15.77;2.90;;;;;;;;;;5133590;27;20114;-78
2021/12/08 09:05:52;;;;;;;12.15;2.70;;;;;;;;;;5133670;27;20035;-79
2021/12/08 09:08:20;;;;;;;13.57;2.83;;;;;;;;;;5097712;27;20068;-79
2021/12/08 09:10:46;;;;;;;11.95;2.53;;;;;;;;;;5133513;27;20042;-78
2021/12/08 09:13:21;;;;;;;10.15;2.63;;;;;;;;;;5133640;27;20078;-78
2021/12/08 09:15:50;;;;;;;12.27;2.78;;;;;;;;;;5133514;28;20042;-78
2021/12/08 09:18:19;;;;;;;13.38;2.60;;;;;;;;;;5133593;28;20083;-78
2021/12/08 09:20:53;;;;;;;11.32;2.50;;;;;;;;;;5115267;28;20126;-78
2021/12/08 09:23:24;;;;;;;11.43;2.58;;;;;;;;;;5133345;28;20076;-79
2021/12/08 09:25:50;;;;;;;;;;;;;;;;;;5133677;28;20095;-78
2021/12/08 09:28:20;;;;;;;11.93;2.47;;;;;;;;;;5133135;28;19963;-78
2021/12/08 09:30:55;;;;;;;11.55;2.55;;;;;;;;;;5115315;28;20131;-78
2021/12/08 09:33:25;;;;;;;13.68;2.80;;;;;;;;;;5133360;28;20043;-79
2021/12/08 09:35:59;;;;;;;13.90;2.72;;;;;;;;;;5133321;28;20039;-79
2021/12/08 09:38:36;;;;;;;9.20;2.65;;;;;;;;;;5133098;28;20124;-78
2021/12/08 09:41:08;;;;;;;13.20;3.00;;;;;;;;;;5133319;28;20039;-78
2021/12/08 09:43:46;;;;;;;14.45;2.78;;;;;;;;;;5113326;28;20127;-77
2021/12/08 09:46:13;;;;;;;12.80;3.20;;;;;;;;;;5097454;28;20055;-79
2021/12/08 09:48:40;;;;;;;13.50;2.63;;;;;;;;;;5132676;28;20516;-79
2021/12/08 09:51:06;;;;;;;10.07;2.53;;;;;;;;;;5113831;28;20365;-77
2021/12/08 09:53:34;;;;;;;11.07;2.60;;;;;;;;;;5114132;28;20045;-79
2021/12/08 09:56:01;;;;;;;12.70;2.72;;;;;;;;;;5114282;28;20480;-78
2021/12/08 09:58:27;;;;;;;11.95;2.47;;;;;;;;;;5114449;28;20404;-78
2021/12/08 10:00:57;;;;;;;12.48;2.95;;;;;;;;;;5110562;28;20043;-79
2021/12/08 10:03:23;;;;;;;14.90;2.97;;;;;;;;;;5111220;28;20485;-79
2021/12/08 10:05:50;;;;;;;11.30;2.72;;;;;;;;;;5111104;28;20477;-79
2021/12/08 10:08:16;;;;;;;14.30;2.50;;;;;;;;;;5111356;28;20381;-78
2021/12/08 10:10:43;;;;;;;12.48;2.60;;;;;;;;;;5111588;28;20126;-79
2021/12/08 10:13:10;;;;;;;10.48;2.65;;;;;;;;;;5111417;28;20044;-80
2021/12/08 10:15:36;;;;;;;12.13;2.47;;;;;;;;;;5110974;28;20427;-79
2021/12/08 10:18:02;;;;;;;11.10;2.63;;;;;;;;;;5112486;28;20043;-78
2021/12/08 10:20:31;;;;;;;12.82;2.83;;;;;;;;;;5114917;28;20493;-79
2021/12/08 10:23:15;;;;;;;10.95;2.42;;;;;;;;;;5115133;28;20047;-79
2021/12/08 10:25:48;;;;;;;13.15;2.67;;;;;;;;;;5115011;28;20043;-78
2021/12/08 10:28:14;;;;;;;13.40;3.05;;;;;;;;;;5115879;28;20051;-79
2021/12/08 10:30:46;;;;;;;13.52;3.03;;;;;;;;;;5114780;28;20445;-78
2021/12/08 10:33:35;;;;;;;12.23;2.80;;;;;;;;;;5116011;28;20051;-78
2021/12/08 10:36:05;;;;;;;15.35;2.70;;;;;;;;;;5115838;28;20043;-79
2021/12/08 10:38:38;;;;;;;11.93;3.00;;;;;;;;;;5115505;28;20088;-79
2021/12/08 10:41:06;;;;;;;11.70;2.88;;;;;;;;;;5114185;28;20127;-78
2021/12/08 10:43:32;;;;;;;16.30;2.45;;;;;;;;;;5115804;28;20422;-78
2021/12/08 10:46:18;;;;;;;8.70;1.98;;;;;;;;;;5115671;28;20097;-77
2021/12/08 10:48:47;;;;;;;11.77;3.03;;;;;;;;;;5114722;28;20055;-78
2021/12/08 10:54:25;;;;;;;10.85;2.90;;;;;;;;;;5114288;28;20042;-78
2021/12/08 10:56:56;;;;;;;10.82;2.63;;;;;;;;;;5115415;28;20079;-78
2021/12/08 10:59:23;;;;;;;7.97;2.40;;;;;;;;;;5114101;28;20048;-79
2021/12/08 11:01:49;;;;;;;11.45;2.63;;;;;;;;;;5132745;27;20091;-79
2021/12/08 11:04:16;;;;;;;13.35;2.97;;;;;;;;;;5136242;27;20130;-78
2021/12/08 11:06:43;;;;;;;12.75;2.75;;;;;;;;;;5118018;27;20044;-78
2021/12/08 11:09:19;;;;;;;13.43;2.35;;;;;;;;;;5135744;27;20510;-80
2021/12/08 11:11:45;;;;;;;13.93;2.78;;;;;;;;;;5135734;27;20039;-79
2021/12/08 11:14:12;;;;;;;13.10;3.05;;;;;;;;;;5135292;27;20479;-79
2021/12/08 11:16:39;;;;;;;13.73;2.75;;;;;;;;;;5135595;27;20092;-77
2021/12/08 11:19:11;;;;;;;11.98;2.63;;;;;;;;;;5135490;27;20089;-78
2021/12/08 11:21:40;;;;;;;12.43;2.53;;;;;;;;;;5117330;27;20139;-78
2021/12/08 11:24:11;;;;;;;12.00;2.70;;;;;;;;;;5135460;27;20054;-79
2021/12/08 11:26:40;;;;;;;12.20;3.00;;;;;;;;;;5135433;27;20050;-78
2021/12/08 11:29:10;;;;;;;11.05;2.85;;;;;;;;;;5135225;27;20047;-79
2021/12/08 11:31:38;;;;;;;13.65;2.70;;;;;;;;;;5116520;27;20078;-78
2021/12/08 11:34:06;;;;;;;11.20;2.53;;;;;;;;;;5135274;27;20095;-78
2021/12/08 11:36:34;;;;;;;13.23;2.60;;;;;;;;;;5135035;27;20092;-78
2021/12/08 11:39:05;;;;;;;13.57;2.50;;;;;;;;;;5135097;27;20051;-79
2021/12/08 11:41:39;;;;;;;10.05;2.67;;;;;;;;;;5135030;27;20387;-77
2021/12/08 11:44:11;;;;;;;13.25;2.80;;;;;;;;;;5117132;27;20043;-76
2021/12/08 11:46:39;;;;;;;11.02;2.45;;;;;;;;;;5135090;27;20045;-78
2021/12/08 11:49:07;;;;;;;9.73;2.38;;;;;;;;;;5134860;27;20042;-77
2021/12/08 11:51:45;;;;;;;12.07;2.60;;;;;;;;;;5116329;27;20066;-78
2021/12/08 11:54:23;;;;;;;11.05;2.72;;;;;;;;;;5134879;27;20460;-78
2021/12/08 11:56:49;;;;;;;10.90;2.42;;;;;;;;;;5134721;27;20045;-77
2021/12/08 11:59:16;;;;;;;13.25;2.30;;;;;;;;;;5134406;27;20095;-77
2021/12/08 12:01:42;;;;;;;11.15;2.40;;;;;;;;;;5134188;27;20530;-79
2021/12/08 12:04:09;;;;;;;16.38;2.78;;;;;;;;;;5134234;27;20039;-79
2021/12/08 12:06:36;;;;;;;13.07;2.60;;;;;;;;;;5115967;27;20039;-77
2021/12/08 12:09:03;;;;;;;10.00;2.30;;;;;;;;;;5134353;27;20106;-77
2021/12/08 12:11:30;;;;;;;10.57;2.47;;;;;;;;;;5099090;27;20515;-78
2021/12/08 12:13:57;;;;;;;9.23;2.45;;;;;;;;;;5134459;27;20047;-77
2021/12/08 12:16:24;;;;;;;14.70;2.55;;;;;;;;;;5134230;27;20085;-78
2021/12/08 12:18:53;;;;;;;8.40;2.05;;;;;;;;;;5133761;27;20570;-79
2021/12/08 12:21:23;;;;;;;11.70;2.55;;;;;;;;;;5115625;27;20042;-78
2021/12/08 12:24:08;;;;;;;13.32;2.67;;;;;;;;;;5134469;27;20042;-77
2021/12/08 12:26:43;;;;;;;10.30;2.33;;;;;;;;;;5115908;27;20065;-79
2021/12/08 12:29:22;;;;;;;11.73;2.42;;;;;;;;;;5134045;27;20035;-78
2021/12/08 12:32:03;;;;;;;10.77;2.58;;;;;;;;;;5134290;27;20043;-77
2021/12/08 12:34:29;;;;;;;;;;;;;;;;;;5134451;27;20091;-78
2021/12/08 12:36:56;;;;;;;10.80;2.63;;;;;;;;;;5115652;27;19915;-77
2021/12/08 12:39:26;;;;;;;7.60;2.10;;;;;;;;;;5115607;27;20091;-78
2021/12/08 12:42:00;;;;;;;9.95;2.58;;;;;;;;;;5132872;27;20495;-74
2021/12/08 12:44:29;;;;;;;9.82;2.42;;;;;;;;;;5134055;27;20457;-77
2021/12/08 12:47:09;;;;;;;12.18;2.47;;;;;;;;;;5133604;27;20488;-78
2021/12/08 12:49:36;;;;;;;9.20;1.98;;;;;;;;;;5133874;27;20046;-77
2021/12/08 12:52:04;;;;;;;8.98;2.10;;;;;;;;;;5133609;27;20180;-78
2021/12/08 12:54:30;;;;;;;11.55;2.53;;;;;;;;;;5133600;27;20047;-77
2021/12/08 12:56:57;;;;;;;9.93;2.08;;;;;;;;;;5115483;27;20095;-78
2021/12/08 12:59:26;;;;;;;11.68;2.47;;;;;;;;;;5098323;27;20043;-79
2021/12/08 13:02:04;;;;;;;9.88;2.42;;;;;;;;;;5133433;27;20142;-78
2021/12/08 13:04:34;;;;;;;9.70;2.03;;;;;;;;;;5133487;27;20433;-78
2021/12/08 13:07:02;;;;;;;11.90;2.20;;;;;;;;;;5115273;27;20047;-78
2021/12/08 13:09:37;;;;;;;11.77;2.25;;;;;;;;;;5133445;27;20043;-78
2021/12/08 13:12:10;;;;;;;8.65;2.05;;;;;;;;;;5115149;28;20062;-79
2021/12/08 13:14:36;;;;;;;9.95;2.05;;;;;;;;;;5133394;27;20050;-78
2021/12/08 13:17:19;;;;;;;9.43;2.10;;;;;;;;;;5133482;28;20047;-78
2021/12/08 13:19:47;;;;;;;9.05;2.05;;;;;;;;;;5115292;28;20070;-78
2021/12/08 13:22:32;;;;;;;11.35;2.28;;;;;;;;;;5133432;28;20503;-79
2021/12/08 13:25:01;;;;;;;9.85;2.60;;;;;;;;;;5133367;28;20152;-79
2021/12/08 13:27:29;;;;;;;8.38;2.10;;;;;;;;;;5133253;28;20096;-79
2021/12/08 13:30:27;;;;;;;11.50;2.53;;;;;;;;;;5133169;28;20059;-78
2021/12/08 13:33:06;;;;;;;9.80;1.90;;;;;;;;;;5095880;28;20051;-77
2021/12/08 13:35:34;;;;;;;10.82;2.30;;;;;;;;;;5115230;28;20099;-79
2021/12/08 13:38:01;;;;;;;8.00;2.13;;;;;;;;;;5133386;28;20053;-77
2021/12/08 13:40:41;;;;;;;8.65;1.73;;;;;;;;;;5133268;28;20050;-78
2021/12/08 13:43:09;;;;;;;10.35;2.22;;;;;;;;;;5115293;28;20039;-78
2021/12/08 13:45:45;;;;;;;10.75;2.10;;;;;;;;;;5114959;28;20081;-78
2021/12/08 13:48:11;;;;;;;7.60;2.40;;;;;;;;;;5114951;28;20046;-78
2021/12/08 13:50:39;;;;;;;11.40;2.22;;;;;;;;;;5097687;28;20046;-79
2021/12/08 13:53:08;;;;;;;8.73;1.92;;;;;;;;;;5115403;27;20122;-78
2021/12/08 13:55:37;;;;;;;12.25;2.08;;;;;;;;;;5118890;27;20047;-78
2021/12/08 13:58:04;;;;;;;9.65;2.05;;;;;;;;;;5137040;27;20396;-78
2021/12/08 14:00:38;;;;;;;12.82;2.15;;;;;;;;;;5136824;27;20088;-78
2021/12/08 14:03:04;;;;;;;9.60;1.90;;;;;;;;;;5136787;27;20509;-79
2021/12/08 14:05:32;;;;;;;8.45;2.03;;;;;;;;;;5137079;27;20043;-77
2021/12/08 14:08:02;;;;;;;9.30;1.98;;;;;;;;;;5136755;27;20119;-78
2021/12/08 14:10:31;;;;;;;10.40;2.30;;;;;;;;;;5136965;27;20392;-78
2021/12/08 14:13:02;;;;;;;12.48;2.53;;;;;;;;;;5118803;27;20039;-77
2021/12/08 14:15:32;;;;;;;9.65;2.10;;;;;;;;;;5118338;27;20053;-77
2021/12/08 14:18:15;;;;;;;13.57;2.58;;;;;;;;;;5137026;27;20081;-78
2021/12/08 14:20:42;;;;;;;7.10;1.90;;;;;;;;;;5136643;27;20441;-78
2021/12/08 14:23:09;;;;;;;10.95;2.10;;;;;;;;;;5118625;27;20066;-78
2021/12/08 14:25:37;;;;;;;10.27;1.95;;;;;;;;;;5118076;27;20035;-78
2021/12/08 14:28:42;;;;;;;11.40;2.17;;;;;;;;;;5136439;27;20055;-78
2021/12/08 14:31:15;;;;;;;10.40;2.22;;;;;;;;;;5033008;28;20041;-78
2021/12/08 14:33:50;;;;;;;10.93;2.10;;;;;;;;;;5032884;28;20387;-77
2021/12/08 14:36:16;;;;;;;10.43;2.25;;;;;;;;;;5092698;27;20444;-78
2021/12/08 14:38:51;;;;;;;10.50;2.10;;;;;;;;;;5136124;27;20039;-78
2021/12/08 14:41:22;;;;;;;9.45;2.40;;;;;;;;;;5118002;27;20129;-77
2021/12/08 14:43:52;;;;;;;10.95;2.38;;;;;;;;;;5118095;27;20484;-78
2021/12/08 14:46:20;;;;;;;9.30;2.45;;;;;;;;;;5100948;27;20144;-77
2021/12/08 14:49:00;;;;;;;10.40;2.75;;;;;;;;;;5118013;27;20057;-78
2021/12/08 14:51:27;;;;;;;10.93;2.53;;;;;;;;;;5136086;27;20047;-79
2021/12/08 14:53:54;;;;;;;12.38;2.47;;;;;;;;;;5136299;27;20046;-78
2021/12/08 14:56:21;;;;;;;10.70;2.45;;;;;;;;;;5135984;27;20086;-78
2021/12/08 14:58:47;;;;;;;10.23;2.40;;;;;;;;;;5117437;27;20897;-79
2021/12/08 15:01:14;;;;;;;13.07;2.92;;;;;;;;;;5135728;27;20572;-78
2021/12/08 15:03:46;;;;;;;10.00;2.25;;;;;;;;;;5117463;27;20051;-78
2021/12/08 15:06:31;;;;;;;7.38;1.92;;;;;;;;;;5134747;27;20039;-78
2021/12/08 15:08:57;;;;;;;7.80;2.25;;;;;;;;;;5135658;27;20500;-79
2021/12/08 15:11:24;;;;;;;11.15;2.30;;;;;;;;;;5133751;27;20434;-78
2021/12/08 15:13:51;;;;;;;8.88;2.40;;;;;;;;;;5134585;27;20043;-80
2021/12/08 15:16:20;;;;;;;11.20;2.20;;;;;;;;;;5135117;27;20357;-78
2021/12/08 15:18:50;;;;;;;10.93;2.65;;;;;;;;;;5135492;27;20484;-79
2021/12/08 15:21:24;;;;;;;10.98;2.13;;;;;;;;;;5135540;27;20047;-77
2021/12/08 15:24:01;;;;;;;11.07;2.40;;;;;;;;;;5135544;27;20091;-78
2021/12/08 15:26:27;;;;;;;8.85;2.20;;;;;;;;;;5099892;27;20090;-77
2021/12/08 15:28:53;;;;;;;7.88;2.50;;;;;;;;;;5135625;27;20051;-77
2021/12/08 15:31:28;;;;;;;13.55;2.85;;;;;;;;;;5135349;27;20051;-79
2021/12/08 15:33:54;;;;;;;11.20;2.90;;;;;;;;;;5116894;27;20039;-77